Time;durP1;ratioP1;P1;durP2;ratioP2;P2;SDS_P1;SDS_P2;PMS_P1;PMS_P2;Temp;Humidity;BMP_temperature;BMP_pressure;BME280_temperature;BME280_humidity;BME280_pressure;Samples;Min_cycle;Max_cycle;Signal;HPM_P1;HPM_P2
2021/09/25 00:02:13;;;;;;;4.70;3.90;;;;;;;33.77;13.69;94685.34;5016823;28;20364;-50
2021/09/25 00:04:40;;;;;;;5.72;4.20;;;;;;;33.64;13.21;94677.94;5002655;28;20057;-49
2021/09/25 00:07:07;;;;;;;4.68;4.28;;;;;;;33.54;13.67;94680.91;4997302;28;20068;-47
2021/09/25 00:09:34;;;;;;;6.95;4.20;;;;;;;33.49;14.01;94684.91;4997485;28;20050;-52
2021/09/25 00:12:02;;;;;;;7.68;4.50;;;;;;;33.70;13.79;94683.59;4997370;28;20484;-51
2021/09/25 00:14:29;;;;;;;4.75;4.10;;;;;;;33.69;13.40;94680.13;4996895;28;20057;-54
2021/09/25 00:16:56;;;;;;;5.32;3.92;;;;;;;33.63;13.80;94687.25;4996498;28;20057;-51
2021/09/25 00:19:23;;;;;;;5.03;4.30;;;;;;;33.68;13.76;94685.97;4997109;28;20445;-47
2021/09/25 00:21:50;;;;;;;5.28;4.10;;;;;;;33.60;13.88;94681.94;4997369;28;20057;-47
2021/09/25 00:24:17;;;;;;;7.32;4.22;;;;;;;33.59;14.00;94681.19;5006393;28;20053;-47
2021/09/25 00:26:44;;;;;;;6.63;4.10;;;;;;;33.44;14.17;94680.00;5016425;28;20042;-49
2021/09/25 00:29:11;;;;;;;5.28;4.28;;;;;;;33.34;14.46;94683.75;5017148;28;20467;-49
2021/09/25 00:31:38;;;;;;;5.07;3.70;;;;;;;33.18;14.63;94684.47;5016973;28;20053;-48
2021/09/25 00:34:05;;;;;;;4.15;3.63;;;;;;;33.43;14.11;94683.91;5007741;28;20054;-46
2021/09/25 00:36:32;;;;;;;6.40;3.85;;;;;;;33.32;14.73;94678.00;4996627;28;20054;-56
2021/09/25 00:39:00;;;;;;;6.28;4.13;;;;;;;33.39;14.29;94683.22;4996980;28;20043;-47
2021/09/25 00:41:27;;;;;;;6.18;4.30;;;;;;;33.63;13.87;94676.41;4996959;28;20050;-47
2021/09/25 00:43:54;;;;;;;7.43;4.50;;;;;;;33.39;14.14;94681.28;5001928;28;20057;-59
2021/09/25 00:46:22;;;;;;;4.95;4.03;;;;;;;33.33;14.63;94679.53;5010111;28;20459;-49
2021/09/25 00:48:49;;;;;;;4.50;4.10;;;;;;;33.21;14.63;94683.63;4996409;28;20050;-46
2021/09/25 00:51:17;;;;;;;5.80;3.97;;;;;;;33.25;14.48;94675.41;4995855;28;20225;-48
2021/09/25 00:53:44;;;;;;;6.22;3.97;;;;;;;33.30;14.60;94674.91;4996337;28;20457;-47
2021/09/25 00:56:12;;;;;;;4.97;3.67;;;;;;;33.62;13.28;94674.91;4996365;28;20057;-49
2021/09/25 00:58:39;;;;;;;3.95;3.22;;;;;;;33.90;13.41;94673.41;4996314;28;20046;-48
2021/09/25 01:01:06;;;;;;;4.22;2.88;;;;;;;33.78;13.10;94676.78;4995718;28;20057;-47
2021/09/25 01:03:34;;;;;;;4.53;2.67;;;;;;;33.85;13.17;94682.06;4998407;28;20446;-55
2021/09/25 01:06:01;;;;;;;3.20;2.60;;;;;;;33.95;13.32;94674.81;5015604;28;20057;-51
2021/09/25 01:08:29;;;;;;;2.95;2.55;;;;;;;34.20;12.84;94679.56;5001652;28;20053;-47
2021/09/25 01:10:56;;;;;;;3.78;2.38;;;;;;;34.07;12.98;94684.94;4995249;28;20057;-54
2021/09/25 01:13:24;;;;;;;5.72;2.80;;;;;;;33.99;13.30;94681.66;4996330;28;20046;-50
2021/09/25 01:15:52;;;;;;;2.83;2.40;;;;;;;34.13;13.29;94683.25;4994809;28;20049;-50
2021/09/25 01:18:19;;;;;;;2.50;2.30;;;;;;;34.18;13.02;94679.22;4995506;28;20057;-48
2021/09/25 01:20:46;;;;;;;2.78;2.40;;;;;;;34.14;12.98;94676.63;4996177;28;20213;-49
2021/09/25 01:23:13;;;;;;;2.97;2.63;;;;;;;34.10;13.41;94688.75;4996135;28;20049;-53
2021/09/25 01:25:40;;;;;;;3.58;2.30;;;;;;;34.08;13.46;94682.97;5014497;28;20487;-47
2021/09/25 01:28:08;;;;;;;2.67;2.25;;;;;;;33.83;13.80;94684.44;5014959;28;20046;-48
2021/09/25 01:30:35;;;;;;;3.22;2.30;;;;;;;33.72;14.00;94690.09;5015414;28;20052;-49
2021/09/25 01:33:02;;;;;;;3.50;2.50;;;;;;;33.46;14.73;94688.47;5015615;28;20054;-47
2021/09/25 01:35:29;;;;;;;5.30;3.40;;;;;;;33.48;14.45;94698.88;4998373;28;20889;-51
2021/09/25 01:37:56;;;;;;;5.38;3.88;;;;;;;33.41;14.51;94697.88;5013066;28;20441;-48
2021/09/25 01:40:24;;;;;;;4.30;3.85;;;;;;;33.30;14.34;94696.56;5015382;28;20042;-47
2021/09/25 01:42:51;;;;;;;6.20;4.22;;;;;;;33.44;14.34;94696.25;5015480;28;20437;-48
2021/09/25 01:45:19;;;;;;;6.45;3.97;;;;;;;33.32;14.92;94707.78;4998813;28;20046;-47
2021/09/25 01:47:46;;;;;;;4.78;4.28;;;;;;;33.38;14.84;94703.38;4995367;28;20049;-47
2021/09/25 01:50:14;;;;;;;5.10;4.20;;;;;;;33.26;14.87;94712.16;4995882;28;20053;-47
2021/09/25 01:52:41;;;;;;;4.70;4.18;;;;;;;33.48;14.83;94713.19;4995601;28;20057;-47
2021/09/25 01:55:09;;;;;;;4.53;3.53;;;;;;;33.43;15.07;94711.00;4995000;28;20046;-47
2021/09/25 01:57:36;;;;;;;5.93;3.70;;;;;;;33.39;14.71;94710.31;5003598;28;20368;-46
2021/09/25 02:00:05;;;;;;;6.13;3.63;;;;;;;33.26;15.59;94714.84;5013666;28;20049;-46
2021/09/25 02:02:33;;;;;;;5.10;4.03;;;;;;;33.21;15.75;94712.66;5015130;28;20050;-50
2021/09/25 02:05:00;;;;;;;4.97;3.55;;;;;;;33.24;15.81;94719.94;5001560;28;20050;-47
2021/09/25 02:07:27;;;;;;;4.22;3.70;;;;;;;33.17;15.63;94715.47;4995595;28;20046;-48
2021/09/25 02:09:54;;;;;;;7.55;4.00;;;;;;;33.46;15.44;94720.97;4994949;28;20053;-48
2021/09/25 02:12:21;;;;;;;4.85;3.50;;;;;;;33.25;15.70;94716.03;4994929;28;20050;-52
2021/09/25 02:14:48;;;;;;;3.95;3.47;;;;;;;33.38;15.16;94720.41;5004301;28;20045;-48
2021/09/25 02:17:16;;;;;;;4.38;3.25;;;;;;;33.45;14.77;94714.03;5014963;28;20080;-46
2021/09/25 02:19:43;;;;;;;5.68;3.45;;;;;;;33.49;15.04;94722.06;5000083;28;20043;-47
2021/09/25 02:22:11;;;;;;;3.35;2.85;;;;;;;33.56;14.68;94719.94;4994304;28;20045;-48
2021/09/25 02:24:38;;;;;;;6.43;2.80;;;;;;;33.84;14.29;94717.75;4994435;28;20050;-50
2021/09/25 02:27:05;;;;;;;3.22;2.60;;;;;;;33.81;14.09;94718.53;4994712;28;20043;-47
2021/09/25 02:29:32;;;;;;;4.25;2.60;;;;;;;34.01;13.97;94716.50;4994728;28;20046;-47
2021/09/25 02:31:59;;;;;;;3.75;2.53;;;;;;;34.07;13.63;94719.44;4995171;28;20050;-47
2021/09/25 02:34:26;;;;;;;2.60;2.40;;;;;;;34.31;13.42;94718.75;4994687;28;20081;-47
2021/09/25 02:36:55;;;;;;;2.90;2.60;;;;;;;34.16;13.22;94716.88;4995115;28;20372;-51
2021/09/25 02:39:22;;;;;;;4.25;2.50;;;;;;;34.62;13.13;94726.44;5005370;28;20357;-47
2021/09/25 02:41:49;;;;;;;2.63;2.42;;;;;;;34.32;13.17;94720.25;5014742;28;20461;-50
2021/09/25 02:44:16;;;;;;;3.13;2.63;;;;;;;34.68;12.81;94723.97;5012235;28;20069;-47
2021/09/25 02:46:43;;;;;;;3.15;2.35;;;;;;;34.45;12.99;94727.72;5014625;28;20065;-47
2021/09/25 02:49:10;;;;;;;3.55;2.28;;;;;;;34.56;13.00;94728.91;5013970;28;20050;-48
2021/09/25 02:51:38;;;;;;;5.13;2.60;;;;;;;34.09;13.11;94725.94;5014932;28;20066;-47
2021/09/25 02:54:05;;;;;;;3.10;2.30;;;;;;;34.63;12.76;94742.31;5011219;28;20046;-52
2021/09/25 02:56:32;;;;;;;7.13;2.60;;;;;;;34.06;13.15;94745.78;4994927;28;20374;-52
2021/09/25 02:58:59;;;;;;;5.07;2.42;;;;;;;34.10;13.14;94751.91;4995018;28;20046;-52
2021/09/25 03:01:26;;;;;;;2.63;2.20;;;;;;;33.80;13.18;94749.56;4993976;28;20377;-53
2021/09/25 03:03:54;;;;;;;3.20;2.22;;;;;;;34.24;12.82;94753.47;4995663;28;20058;-48
2021/09/25 03:06:25;;;;;;;2.72;2.42;;;;;;;34.24;12.81;94753.47;5014065;28;20042;-48
2021/09/25 03:08:53;;;;;;;2.42;2.22;;;;;;;34.29;13.02;94750.97;5010184;28;20463;-47
2021/09/25 03:11:20;;;;;;;2.90;2.10;;;;;;;34.42;12.74;94750.28;5007373;28;20050;-47
2021/09/25 03:13:47;;;;;;;2.60;2.40;;;;;;;33.62;13.21;94758.91;5013115;28;20054;-48
2021/09/25 03:16:14;;;;;;;2.90;2.60;;;;;;;34.51;12.78;94758.56;4994760;28;20050;-58
2021/09/25 03:18:41;;;;;;;3.05;2.30;;;;;;;34.39;12.64;94762.78;4997806;28;20053;-50
2021/09/25 03:21:08;;;;;;;2.85;2.20;;;;;;;34.33;12.71;94764.44;5005138;28;20046;-50
2021/09/25 03:23:36;;;;;;;3.47;2.58;;;;;;;34.33;12.68;94767.91;5017625;28;20078;-63
2021/09/25 03:26:03;;;;;;;2.90;2.40;;;;;;;34.57;12.45;94773.09;5017862;28;20060;-50
2021/09/25 03:28:30;;;;;;;3.10;2.30;;;;;;;34.21;13.21;94774.06;5017614;28;20046;-56
2021/09/25 03:30:57;;;;;;;2.88;2.38;;;;;;;34.24;13.12;94770.50;5007387;28;20046;-53
2021/09/25 03:33:24;;;;;;;3.85;2.10;;;;;;;33.95;13.81;94783.28;4997774;28;20054;-50
2021/09/25 03:35:51;;;;;;;3.97;2.30;;;;;;;34.08;13.46;94784.09;4998039;28;20057;-52
2021/09/25 03:38:21;;;;;;;3.33;2.08;;;;;;;33.85;13.75;94778.91;4997912;28;20054;-50
2021/09/25 03:40:49;;;;;;;2.72;2.10;;;;;;;34.00;13.44;94778.09;4997959;28;20081;-49
2021/09/25 03:43:18;;;;;;;4.13;2.58;;;;;;;34.54;13.05;94780.16;4997393;28;20046;-48
2021/09/25 03:45:45;;;;;;;3.17;2.83;;;;;;;33.91;13.24;94782.63;4997536;28;20038;-52
2021/09/25 03:48:13;;;;;;;3.35;2.28;;;;;;;34.08;13.25;94780.63;4996453;28;20050;-63
2021/09/25 03:50:40;;;;;;;3.88;2.58;;;;;;;34.20;13.50;94788.06;5013141;28;20460;-51
2021/09/25 03:53:07;;;;;;;2.97;2.60;;;;;;;33.96;13.71;94795.66;5000506;28;20471;-48
2021/09/25 03:55:34;;;;;;;3.92;2.90;;;;;;;33.93;14.47;94796.50;5017531;28;20352;-49
2021/09/25 03:58:02;;;;;;;3.42;2.80;;;;;;;33.88;14.50;94799.75;5017549;28;20057;-57
2021/09/25 04:00:29;;;;;;;3.55;2.75;;;;;;;33.94;14.12;94800.75;5016626;28;20045;-52
2021/09/25 04:02:56;;;;;;;3.05;2.72;;;;;;;33.87;13.87;94790.09;5016402;28;20050;-48
2021/09/25 04:05:24;;;;;;;3.55;2.58;;;;;;;33.93;13.94;94793.81;5015834;28;20079;-53
2021/09/25 04:07:51;;;;;;;4.45;2.63;;;;;;;33.80;13.68;94798.34;5017166;28;20077;-49
2021/09/25 04:10:18;;;;;;;4.90;2.67;;;;;;;33.90;13.87;94787.28;5016596;28;20050;-49
2021/09/25 04:12:45;;;;;;;3.15;2.58;;;;;;;34.19;13.44;94806.28;5017074;28;20045;-49
2021/09/25 04:15:12;;;;;;;7.45;2.97;;;;;;;33.99;13.98;94811.84;5016695;28;20050;-54
2021/09/25 04:17:40;;;;;;;3.88;3.33;;;;;;;33.81;14.46;94818.84;5017000;28;20053;-52
2021/09/25 04:20:08;;;;;;;4.25;3.83;;;;;;;33.39;14.25;94826.81;5014929;28;20042;-49
2021/09/25 04:22:35;;;;;;;5.47;4.25;;;;;;;33.29;14.65;94830.50;5016823;28;20057;-51
2021/09/25 04:25:02;;;;;;;6.28;4.32;;;;;;;33.28;14.64;94834.38;5006371;28;20050;-56
2021/09/25 04:27:30;;;;;;;5.90;4.38;;;;;;;33.24;14.64;94836.41;4997239;28;20061;-48
2021/09/25 04:30:01;;;;;;;5.72;4.40;;;;;;;33.11;14.74;94842.50;5008585;28;20361;-49
2021/09/25 04:32:28;;;;;;;7.05;4.32;;;;;;;33.21;14.87;94839.97;5015767;28;20129;-51
2021/09/25 04:34:56;;;;;;;5.63;4.63;;;;;;;33.32;14.46;94840.53;5016116;28;20053;-51
2021/09/25 04:37:23;;;;;;;5.90;4.05;;;;;;;33.08;14.94;94842.56;5015999;28;20054;-49
2021/09/25 04:39:50;;;;;;;5.47;4.00;;;;;;;33.01;14.81;94859.72;5015454;28;20042;-57
2021/09/25 04:42:17;;;;;;;7.50;4.57;;;;;;;33.06;15.37;94856.53;5015401;28;20046;-48
2021/09/25 04:44:44;;;;;;;9.82;4.72;;;;;;;33.05;15.33;94855.00;5008728;28;20050;-51
2021/09/25 04:47:11;;;;;;;7.93;4.78;;;;;;;33.29;14.73;94863.00;4996925;28;20050;-53
2021/09/25 04:49:38;;;;;;;6.47;5.00;;;;;;;33.39;15.07;94862.81;5005126;28;20062;-49
2021/09/25 04:52:06;;;;;;;8.40;4.65;;;;;;;33.23;15.24;94860.03;5015674;28;20062;-47
2021/09/25 04:54:33;;;;;;;6.35;4.18;;;;;;;33.27;15.28;94866.13;5015432;28;20046;-48
2021/09/25 04:57:00;;;;;;;6.70;4.78;;;;;;;33.51;15.06;94863.31;5015585;28;20061;-52
2021/09/25 04:59:27;;;;;;;7.82;4.63;;;;;;;33.59;14.90;94868.19;5014515;28;20046;-48
2021/09/25 05:01:54;;;;;;;6.05;4.40;;;;;;;33.52;15.03;94859.41;5014590;28;20065;-48
2021/09/25 05:04:22;;;;;;;10.07;4.43;;;;;;;33.50;15.64;94867.97;5015030;28;20046;-52
2021/09/25 05:06:50;;;;;;;6.35;4.38;;;;;;;33.52;15.10;94871.03;5015259;28;20057;-47
2021/09/25 05:09:18;;;;;;;4.20;3.72;;;;;;;34.21;14.77;94865.53;5015840;28;20050;-52
2021/09/25 05:11:45;;;;;;;5.28;3.30;;;;;;;34.32;14.63;94858.63;5012820;28;20056;-54
2021/09/25 05:14:12;;;;;;;5.53;3.22;;;;;;;34.39;14.66;94865.88;5011333;28;20058;-49
2021/09/25 05:16:40;;;;;;;4.88;3.28;;;;;;;34.72;14.86;94869.25;4995044;28;20050;-46
2021/09/25 05:19:07;;;;;;;5.50;3.40;;;;;;;34.97;14.43;94870.53;5008227;28;20049;-48
2021/09/25 05:21:34;;;;;;;3.75;3.08;;;;;;;35.25;14.14;94880.59;5014874;28;20045;-54
2021/09/25 05:24:02;;;;;;;4.15;2.53;;;;;;;35.08;14.30;94876.41;5000740;28;20050;-51
2021/09/25 05:26:29;;;;;;;4.78;2.88;;;;;;;35.20;14.47;94883.84;5003365;28;20056;-49
2021/09/25 05:28:56;;;;;;;4.63;2.72;;;;;;;35.37;14.15;94885.28;5015375;28;20338;-58
2021/09/25 05:31:23;;;;;;;3.30;2.35;;;;;;;35.88;14.11;94882.59;5015233;28;20057;-54
2021/09/25 05:33:50;;;;;;;3.42;2.50;;;;;;;35.90;14.15;94884.88;5002679;28;20057;-55
2021/09/25 05:36:17;;;;;;;5.00;2.50;;;;;;;36.31;13.55;94892.88;4996118;28;20038;-56
2021/09/25 05:38:44;;;;;;;4.28;2.53;;;;;;;36.27;13.85;94894.91;4995370;28;20055;-42
2021/09/25 05:41:13;;;;;;;5.20;2.58;;;;;;;36.52;13.99;94901.53;5015546;28;20053;-54
2021/09/25 05:43:40;;;;;;;4.45;2.58;;;;;;;36.80;14.02;94900.56;5002060;28;20046;-51
2021/09/25 05:46:07;;;;;;;6.68;2.60;;;;;;;37.25;12.97;94891.19;5012311;28;20055;-58
2021/09/25 05:48:34;;;;;;;3.60;2.40;;;;;;;37.40;13.10;94897.59;5015075;28;20034;-63
2021/09/25 05:51:02;;;;;;;4.20;2.35;;;;;;;37.28;13.00;94912.84;4997071;28;20361;-62
2021/09/25 05:53:29;;;;;;;4.18;3.17;;;;;;;37.15;13.19;94917.59;4996037;28;20357;-57
2021/09/25 05:55:56;;;;;;;10.27;6.50;;;;;;;36.89;13.23;94918.91;4995603;28;20457;-57
2021/09/25 05:58:23;;;;;;;11.13;8.85;;;;;;;36.15;13.36;94928.34;4995626;28;20416;-59
2021/09/25 06:00:50;;;;;;;14.52;10.05;;;;;;;36.30;13.52;94934.88;4998897;28;20042;-54
2021/09/25 06:03:18;;;;;;;13.88;10.70;;;;;;;36.80;12.97;94933.25;4998229;28;20061;-55
2021/09/25 06:05:45;;;;;;;12.88;10.30;;;;;;;36.53;13.25;94931.03;5015089;28;20389;-53
2021/09/25 06:08:12;;;;;;;13.35;9.00;;;;;;;36.50;13.60;94944.75;5014615;28;20057;-54
2021/09/25 06:10:40;;;;;;;11.57;7.85;;;;;;;36.63;13.34;94954.41;5012478;28;20058;-53
2021/09/25 06:13:10;;;;;;;9.73;7.95;;;;;;;36.97;13.24;94955.63;4994889;28;20057;-58
2021/09/25 06:15:38;;;;;;;9.85;7.40;;;;;;;36.91;12.83;94951.91;4995025;28;20057;-54
2021/09/25 06:18:05;;;;;;;7.68;6.40;;;;;;;36.95;13.05;94952.56;4994268;28;20057;-51
2021/09/25 06:20:33;;;;;;;10.85;6.85;;;;;;;36.93;12.68;94946.78;4995166;28;20046;-59
2021/09/25 06:23:00;;;;;;;9.75;6.50;;;;;;;37.05;12.24;94954.91;5014899;28;20053;-53
2021/09/25 06:25:27;;;;;;;9.68;6.72;;;;;;;36.80;12.82;94960.47;5013741;28;20052;-56
2021/09/25 06:27:54;;;;;;;14.65;6.90;;;;;;;37.46;12.31;94960.47;5013474;28;20042;-66
2021/09/25 06:30:21;;;;;;;12.18;7.15;;;;;;;37.48;12.42;94960.81;5003486;28;20046;-60
2021/09/25 06:32:48;;;;;;;9.57;6.38;;;;;;;37.76;12.71;94959.78;5013474;28;20053;-54
2021/09/25 06:35:16;;;;;;;10.75;6.65;;;;;;;37.73;12.57;94957.91;5013896;28;20045;-56
2021/09/25 06:37:44;;;;;;;10.38;7.38;;;;;;;38.37;12.75;94974.53;5013576;28;20050;-67
2021/09/25 06:40:12;;;;;;;10.55;7.97;;;;;;;38.21;12.54;94964.63;4993405;28;20049;-53
2021/09/25 06:42:40;;;;;;;8.20;7.15;;;;;;;37.78;12.73;94965.53;4997269;28;20161;-53
2021/09/25 06:45:08;;;;;;;8.35;6.32;;;;;;;38.40;11.94;94957.25;4987129;28;20057;-55
2021/09/25 06:47:35;;;;;;;11.68;6.85;;;;;;;38.58;12.41;94970.19;5014811;28;20432;-54
2021/09/25 06:50:03;;;;;;;14.35;8.38;;;;;;;38.84;12.07;94970.69;4995840;28;20359;-54
2021/09/25 06:52:30;;;;;;;11.00;7.47;;;;;;;39.16;11.99;94969.31;4994660;28;20449;-54
2021/09/25 06:54:58;;;;;;;11.55;7.88;;;;;;;39.75;11.63;94969.81;4994427;28;20050;-59
2021/09/25 06:57:26;;;;;;;11.13;8.70;;;;;;;39.92;11.78;94962.00;4996616;28;20061;-52
2021/09/25 06:59:53;;;;;;;12.85;9.57;;;;;;;40.03;11.78;94956.81;5004480;28;20045;-56
2021/09/25 07:02:20;;;;;;;14.57;9.80;;;;;;;40.56;11.45;94962.44;5016534;28;20050;-56
2021/09/25 07:04:48;;;;;;;12.10;9.48;;;;;;;40.83;10.90;94960.75;4998642;28;20054;-55
2021/09/25 07:07:15;;;;;;;12.00;8.45;;;;;;;41.33;10.97;94958.97;4998493;28;20050;-53
2021/09/25 07:09:42;;;;;;;9.80;7.45;;;;;;;41.87;10.56;94956.88;4998709;28;20042;-56
2021/09/25 07:12:10;;;;;;;11.05;6.63;;;;;;;41.28;11.27;94959.63;4997838;28;20049;-60
2021/09/25 07:14:37;;;;;;;9.48;7.32;;;;;;;41.66;11.12;94958.06;4997575;28;20061;-53
2021/09/25 07:17:04;;;;;;;9.50;5.82;;;;;;;41.13;11.47;94959.59;4998470;28;20061;-57
2021/09/25 07:19:31;;;;;;;6.68;4.70;;;;;;;40.90;11.65;94954.94;4990577;28;20057;-54
2021/09/25 07:21:58;;;;;;;5.30;3.90;;;;;;;41.52;11.58;94965.78;5008424;28;20044;-53
2021/09/25 07:24:25;;;;;;;5.90;3.50;;;;;;;41.39;11.39;94968.06;5017916;28;20038;-53
2021/09/25 07:26:52;;;;;;;5.03;4.22;;;;;;;41.72;11.63;94962.41;5018145;28;20049;-52
2021/09/25 07:29:19;;;;;;;4.82;3.80;;;;;;;41.96;11.08;94975.22;5016582;28;20049;-55
2021/09/25 07:31:46;;;;;;;4.13;3.50;;;;;;;41.99;11.03;94969.53;5009191;28;20077;-53
2021/09/25 07:34:14;;;;;;;4.15;3.47;;;;;;;41.93;11.21;94965.22;4998133;28;20376;-52
2021/09/25 07:36:41;;;;;;;4.07;3.40;;;;;;;42.23;11.11;94965.91;4997172;28;20050;-54
2021/09/25 07:39:08;;;;;;;5.30;3.22;;;;;;;41.60;11.51;94971.63;4998293;28;20396;-54
2021/09/25 07:41:36;;;;;;;3.40;3.10;;;;;;;41.96;11.57;94975.22;4997276;28;20046;-51
2021/09/25 07:44:04;;;;;;;5.05;3.08;;;;;;;42.10;11.14;94969.72;4996963;28;20054;-52
2021/09/25 07:46:32;;;;;;;2.65;2.45;;;;;;;42.34;10.94;94982.53;4998021;28;20434;-54
2021/09/25 07:48:59;;;;;;;3.95;2.78;;;;;;;42.70;10.11;94973.81;4997775;28;20365;-55
2021/09/25 07:51:27;;;;;;;3.83;2.70;;;;;;;42.57;10.71;94978.13;5002492;28;20049;-55
2021/09/25 07:53:55;;;;;;;5.07;2.38;;;;;;;42.56;10.79;94982.09;5017416;28;20049;-54
2021/09/25 07:56:23;;;;;;;3.33;2.42;;;;;;;42.49;11.14;94972.28;5016852;28;20053;-56
2021/09/25 07:58:50;;;;;;;3.53;2.03;;;;;;;41.36;11.44;94974.47;5017441;28;20050;-54
2021/09/25 08:01:17;;;;;;;3.78;2.60;;;;;;;40.95;12.07;94974.22;5013574;28;20061;-55
2021/09/25 08:03:44;;;;;;;2.50;2.20;;;;;;;40.77;12.17;94974.31;4997181;28;20465;-55
2021/09/25 08:06:11;;;;;;;3.15;2.25;;;;;;;40.64;12.25;94966.38;4996966;28;20057;-54
2021/09/25 08:08:38;;;;;;;3.53;2.33;;;;;;;39.93;12.52;94969.75;4995954;28;20054;-53
2021/09/25 08:11:05;;;;;;;4.97;2.38;;;;;;;39.84;12.54;94971.78;5010048;28;20060;-52
2021/09/25 08:13:33;;;;;;;2.88;2.10;;;;;;;39.64;12.45;94970.31;4996789;28;20053;-53
2021/09/25 08:16:00;;;;;;;2.40;2.10;;;;;;;39.59;12.70;94968.22;4997285;28;20054;-56
2021/09/25 08:18:28;;;;;;;2.92;2.22;;;;;;;39.65;12.45;94966.34;5002777;28;20052;-53
2021/09/25 08:20:57;;;;;;;2.63;2.03;;;;;;;39.83;12.47;94970.25;5015660;28;20045;-52
2021/09/25 08:23:24;;;;;;;2.30;2.10;;;;;;;39.84;12.58;94961.59;4996701;28;20057;-55
2021/09/25 08:25:55;;;;;;;2.97;2.25;;;;;;;39.77;12.27;94968.13;4996802;28;20042;-52
2021/09/25 08:28:23;;;;;;;3.08;2.33;;;;;;;40.11;12.35;94963.47;4997413;28;20069;-56
2021/09/25 08:30:52;;;;;;;4.40;2.25;;;;;;;39.92;12.52;94970.97;5008499;28;20062;-55
2021/09/25 08:33:19;;;;;;;3.92;2.38;;;;;;;39.81;12.42;94956.25;4997695;28;20057;-53
2021/09/25 08:35:46;;;;;;;3.50;2.22;;;;;;;39.77;13.03;94968.13;4997203;28;20061;-52
2021/09/25 08:38:13;;;;;;;32.30;29.25;;;;;;;39.70;12.81;94963.00;4997242;28;20061;-54
2021/09/25 08:40:40;;;;;;;8.10;7.30;;;;;;;39.82;12.84;94952.31;5006178;28;20065;-55
2021/09/25 08:43:07;;;;;;;3.72;3.42;;;;;;;40.06;12.82;94955.88;4999337;28;20057;-53
2021/09/25 08:45:34;;;;;;;3.67;3.13;;;;;;;39.99;12.82;94950.75;4996804;28;20050;-53
2021/09/25 08:48:02;;;;;;;2.92;2.65;;;;;;;40.30;12.65;94953.91;4998878;28;20053;-56
2021/09/25 08:50:30;;;;;;;2.85;2.50;;;;;;;40.72;12.10;94955.81;5008075;28;20058;-55
2021/09/25 08:52:57;;;;;;;3.97;2.80;;;;;;;40.01;12.59;94961.97;5005011;28;20053;-54
2021/09/25 08:55:24;;;;;;;3.88;2.42;;;;;;;40.12;12.74;94956.78;4996786;28;20057;-53
2021/09/25 08:57:51;;;;;;;2.38;2.17;;;;;;;40.33;12.94;94950.25;4996836;28;20054;-52
2021/09/25 09:00:24;;;;;;;3.33;2.35;;;;;;;40.30;12.76;94959.38;4996464;28;20054;-54
2021/09/25 09:02:52;;;;;;;3.92;2.38;;;;;;;40.27;12.49;94962.31;4996436;28;20046;-55
2021/09/25 09:05:30;;;;;;;6.47;2.65;;;;;;;40.44;12.34;94949.00;4995852;28;20050;-57
2021/09/25 09:08:02;;;;;;;3.58;2.40;;;;;;;40.48;12.13;94952.31;4996587;28;20369;-53
2021/09/25 09:10:34;;;;;;;4.07;2.42;;;;;;;40.13;12.45;94955.56;4996228;28;20050;-54
2021/09/25 09:13:02;;;;;;;3.17;2.30;;;;;;;40.13;12.10;94947.34;4996260;28;20457;-53
2021/09/25 09:15:39;;;;;;;2.97;2.10;;;;;;;40.08;12.63;94947.97;4996143;28;20450;-52
2021/09/25 09:18:13;;;;;;;2.60;2.40;;;;;;;40.52;12.27;94947.41;4994858;28;20058;-54
2021/09/25 09:20:58;;;;;;;4.28;2.20;;;;;;;40.56;12.29;94948.00;4995855;28;20381;-54
2021/09/25 09:23:25;;;;;;;3.67;2.55;;;;;;;40.80;12.55;94946.00;5004041;28;20049;-54
2021/09/25 09:25:52;;;;;;;2.40;2.20;;;;;;;40.51;12.33;94952.13;5016003;28;20053;-53
2021/09/25 09:28:28;;;;;;;3.63;2.35;;;;;;;40.73;11.80;94951.06;5009951;28;20050;-52
2021/09/25 09:30:58;;;;;;;2.38;2.13;;;;;;;40.58;12.09;94956.50;5006308;28;20049;-55
2021/09/25 09:33:29;;;;;;;4.68;2.70;;;;;;;40.93;12.25;94954.00;5007513;28;20058;-56
2021/09/25 09:36:20;;;;;;;2.75;2.50;;;;;;;40.79;12.64;94960.16;5008965;28;20360;-60
2021/09/25 09:38:55;;;;;;;4.68;2.42;;;;;;;40.58;12.77;94951.03;4989565;28;20050;-67
2021/09/25 09:41:24;;;;;;;4.28;2.60;;;;;;;39.91;12.76;94955.00;5008013;28;20752;-59
2021/09/25 09:43:53;;;;;;;2.35;2.10;;;;;;;40.39;12.43;94949.66;5001718;28;20076;-59
2021/09/25 09:46:27;;;;;;;2.90;2.53;;;;;;;40.32;12.46;94953.44;5000160;28;20061;-61
2021/09/25 09:48:55;;;;;;;3.60;2.53;;;;;;;40.55;12.64;94951.97;4998332;28;20042;-49
2021/09/25 09:51:37;;;;;;;3.10;2.80;;;;;;;40.57;12.74;94955.75;4985459;28;20599;-56
2021/09/25 09:54:10;;;;;;;3.30;2.28;;;;;;;40.47;12.79;94956.28;4995337;28;20046;-55
2021/09/25 09:56:40;;;;;;;3.40;2.70;;;;;;;40.30;12.81;94951.16;5011402;28;20133;-67
2021/09/25 09:59:08;;;;;;;3.90;3.17;;;;;;;40.36;12.72;94962.28;4995925;28;20458;-67
2021/09/25 10:01:36;;;;;;;3.33;2.63;;;;;;;40.35;12.43;94953.28;5010349;28;20041;-71
2021/09/25 10:04:04;;;;;;;3.50;2.50;;;;;;;40.76;12.23;94950.88;5003189;28;20480;-63
2021/09/25 10:06:33;;;;;;;2.65;2.20;;;;;;;40.42;12.31;94956.94;4995281;28;20053;-65
2021/09/25 10:09:01;;;;;;;2.30;2.10;;;;;;;40.82;11.89;94948.28;4995513;28;20046;-56
2021/09/25 10:11:30;;;;;;;2.80;2.60;;;;;;;40.97;12.74;94951.81;4983968;28;20076;-64
2021/09/25 10:13:58;;;;;;;3.47;2.50;;;;;;;40.53;12.62;94943.44;5005467;28;20049;-55
2021/09/25 10:16:25;;;;;;;2.72;2.22;;;;;;;40.59;12.98;94952.53;5014805;28;20056;-57
2021/09/25 10:18:52;;;;;;;6.60;2.55;;;;;;;40.71;12.95;94953.53;5014753;28;20052;-67
2021/09/25 10:21:20;;;;;;;3.35;2.65;;;;;;;40.67;12.79;94948.22;5014815;28;20046;-53
2021/09/25 10:24:09;;;;;;;4.30;3.25;;;;;;;40.46;12.76;94946.56;4988613;28;20046;-53
2021/09/25 10:26:43;;;;;;;3.40;2.20;;;;;;;40.41;12.82;94941.72;4978005;28;20381;-48
2021/09/25 10:29:16;;;;;;;3.85;2.33;;;;;;;40.86;12.52;94938.69;4994731;28;20046;-54
2021/09/25 10:31:43;;;;;;;2.88;2.50;;;;;;;41.39;12.17;94954.34;4994213;28;20053;-53
2021/09/25 10:34:12;;;;;;;3.80;3.22;;;;;;;40.98;11.98;94939.63;5006936;28;20060;-52
2021/09/25 10:36:49;;;;;;;3.22;2.50;;;;;;;41.09;11.92;94945.31;5012090;28;20049;-54
2021/09/25 10:39:29;;;;;;;30.00;26.75;;;;;;;41.02;12.15;94933.97;5014881;28;20746;-58
2021/09/25 10:42:11;;;;;;;16.92;5.45;;;;;;;40.91;12.25;94931.78;5014550;28;20377;-50
2021/09/25 10:44:45;;;;;;;3.70;3.13;;;;;;;41.23;12.03;94930.13;5014090;28;20368;-51
2021/09/25 10:47:12;;;;;;;3.00;2.65;;;;;;;40.75;12.54;94921.97;5013994;28;20050;-59
2021/09/25 10:49:55;;;;;;;2.60;2.40;;;;;;;41.19;11.76;94932.28;5014467;28;20053;-65
2021/09/25 10:52:25;;;;;;;4.03;2.47;;;;;;;41.15;11.98;94923.50;5014619;28;20046;-52
2021/09/25 10:55:19;;;;;;;2.83;2.50;;;;;;;40.76;12.40;94923.50;4979137;28;20061;-51
2021/09/25 10:58:14;;;;;;;2.50;2.28;;;;;;;40.84;12.31;94912.94;4995012;28;20763;-51
2021/09/25 11:01:04;;;;;;;2.40;2.20;;;;;;;40.27;12.55;94913.78;4993363;28;20484;-54
2021/09/25 11:06:14;;;;;;;3.05;2.13;;;;;;;40.36;12.36;94916.47;4994986;28;20050;-53
2021/09/25 11:08:52;;;;;;;2.38;1.83;;;;;;;40.73;12.13;94913.47;4994492;28;20441;-56
2021/09/25 11:11:32;;;;;;;2.50;2.08;;;;;;;41.01;12.06;94916.00;4993731;28;20054;-54
2021/09/25 11:14:03;;;;;;;3.20;2.42;;;;;;;41.12;12.34;94906.00;4994393;28;20046;-56
2021/09/25 11:16:45;;;;;;;3.95;2.45;;;;;;;41.23;12.13;94916.41;4994925;28;20525;-55
2021/09/25 11:19:29;;;;;;;3.80;2.33;;;;;;;40.91;12.28;94913.34;4994641;28;20053;-56
2021/09/25 11:22:05;;;;;;;3.08;2.63;;;;;;;40.65;12.31;94917.81;4994547;28;20050;-58
2021/09/25 11:24:49;;;;;;;4.60;2.42;;;;;;;40.70;12.21;94914.41;5008043;28;20054;-52
2021/09/25 11:27:19;;;;;;;3.85;2.30;;;;;;;40.61;12.42;94911.75;5013459;28;20049;-48
2021/09/25 11:30:01;;;;;;;;;;;;;;;40.85;12.56;94904.25;5014822;28;20046;-45
2021/09/25 11:32:45;;;;;;;2.60;2.10;;;;;;;40.76;12.02;94896.09;5011920;28;20260;-55
2021/09/25 11:35:13;;;;;;;2.83;1.85;;;;;;;41.05;12.26;94900.13;5011728;28;20057;-55
2021/09/25 11:37:51;;;;;;;2.42;1.80;;;;;;;40.60;12.52;94899.25;5014329;28;20369;-52
2021/09/25 11:40:20;;;;;;;4.45;1.90;;;;;;;40.57;12.40;94894.72;5014037;28;20046;-57
2021/09/25 11:42:48;;;;;;;19.35;14.40;;;;;;;40.60;12.54;94893.78;5014144;28;20046;-68